sensor_id;sensor_type;location;lat;lon;timestamp;temperature;humidity
20070;DHT22;10195;50.868;4.382;2023-07-28T00:02:05;18.60;99.90
20070;DHT22;10195;50.868;4.382;2023-07-28T00:04:31;18.50;99.90
20070;DHT22;10195;50.868;4.382;2023-07-28T00:06:57;18.60;99.90
20070;DHT22;10195;50.868;4.382;2023-07-28T00:09:22;18.70;99.90
20070;DHT22;10195;50.868;4.382;2023-07-28T00:11:50;18.60;99.90
20070;DHT22;10195;50.868;4.382;2023-07-28T00:14:16;18.60;99.90
20070;DHT22;10195;50.868;4.382;2023-07-28T00:16:42;18.70;99.90
20070;DHT22;10195;50.868;4.382;2023-07-28T00:19:07;18.70;99.90
20070;DHT22;10195;50.868;4.382;2023-07-28T00:21:33;18.70;99.90
20070;DHT22;10195;50.868;4.382;2023-07-28T00:23:59;18.70;99.90
20070;DHT22;10195;50.868;4.382;2023-07-28T00:26:24;18.70;99.90
20070;DHT22;10195;50.868;4.382;2023-07-28T00:28:50;18.70;99.90
20070;DHT22;10195;50.868;4.382;2023-07-28T00:31:16;18.60;99.90
20070;DHT22;10195;50.868;4.382;2023-07-28T00:33:41;18.70;99.90
20070;DHT22;10195;50.868;4.382;2023-07-28T00:36:07;18.80;99.90
20070;DHT22;10195;50.868;4.382;2023-07-28T00:38:33;18.70;99.90
20070;DHT22;10195;50.868;4.382;2023-07-28T00:40:59;18.70;99.90
20070;DHT22;10195;50.868;4.382;2023-07-28T00:43:25;18.80;99.90
20070;DHT22;10195;50.868;4.382;2023-07-28T00:45:50;18.90;99.90
20070;DHT22;10195;50.868;4.382;2023-07-28T00:48:17;18.90;99.90
20070;DHT22;10195;50.868;4.382;2023-07-28T00:50:47;18.90;99.90
20070;DHT22;10195;50.868;4.382;2023-07-28T00:53:14;18.90;99.90
20070;DHT22;10195;50.868;4.382;2023-07-28T00:55:41;18.90;99.90
20070;DHT22;10195;50.868;4.382;2023-07-28T00:58:08;18.90;99.90
20070;DHT22;10195;50.868;4.382;2023-07-28T01:00:34;18.80;99.90
20070;DHT22;10195;50.868;4.382;2023-07-28T01:03:00;18.70;99.90
20070;DHT22;10195;50.868;4.382;2023-07-28T01:05:48;18.80;99.90
20070;DHT22;10195;50.868;4.382;2023-07-28T01:10:49;18.80;99.90
20070;DHT22;10195;50.868;4.382;2023-07-28T01:13:15;18.70;99.90
20070;DHT22;10195;50.868;4.382;2023-07-28T01:15:41;18.80;99.90
20070;DHT22;10195;50.868;4.382;2023-07-28T01:18:06;18.80;99.90
20070;DHT22;10195;50.868;4.382;2023-07-28T01:20:33;18.90;99.90
20070;DHT22;10195;50.868;4.382;2023-07-28T01:23:41;19.00;99.90
20070;DHT22;10195;50.868;4.382;2023-07-28T01:26:11;19.00;99.90
20070;DHT22;10195;50.868;4.382;2023-07-28T01:28:39;18.90;99.90
20070;DHT22;10195;50.868;4.382;2023-07-28T01:31:06;18.90;99.90
20070;DHT22;10195;50.868;4.382;2023-07-28T01:33:32;18.80;99.90
20070;DHT22;10195;50.868;4.382;2023-07-28T01:35:58;18.80;99.90
20070;DHT22;10195;50.868;4.382;2023-07-28T01:38:28;18.80;99.90
20070;DHT22;10195;50.868;4.382;2023-07-28T01:40:55;18.80;99.90
20070;DHT22;10195;50.868;4.382;2023-07-28T01:43:20;18.90;99.90
20070;DHT22;10195;50.868;4.382;2023-07-28T01:45:46;18.90;99.90
20070;DHT22;10195;50.868;4.382;2023-07-28T01:48:12;18.90;99.90
20070;DHT22;10195;50.868;4.382;2023-07-28T01:50:38;18.90;99.90
20070;DHT22;10195;50.868;4.382;2023-07-28T01:53:07;18.90;99.90
20070;DHT22;10195;50.868;4.382;2023-07-28T01:55:33;18.80;99.90
20070;DHT22;10195;50.868;4.382;2023-07-28T01:58:00;18.90;99.90
20070;DHT22;10195;50.868;4.382;2023-07-28T02:00:26;18.90;99.90
20070;DHT22;10195;50.868;4.382;2023-07-28T02:02:53;18.90;99.90
20070;DHT22;10195;50.868;4.382;2023-07-28T02:05:19;19.00;99.90
20070;DHT22;10195;50.868;4.382;2023-07-28T02:07:46;19.00;99.90
20070;DHT22;10195;50.868;4.382;2023-07-28T02:10:12;19.10;99.90
20070;DHT22;10195;50.868;4.382;2023-07-28T02:12:38;19.10;99.90
20070;DHT22;10195;50.868;4.382;2023-07-28T02:15:05;19.10;99.90
20070;DHT22;10195;50.868;4.382;2023-07-28T02:17:31;19.10;99.90
20070;DHT22;10195;50.868;4.382;2023-07-28T02:19:56;19.10;99.90
20070;DHT22;10195;50.868;4.382;2023-07-28T02:22:22;19.00;99.90
20070;DHT22;10195;50.868;4.382;2023-07-28T02:24:48;19.00;99.90
20070;DHT22;10195;50.868;4.382;2023-07-28T02:27:13;19.00;99.90
20070;DHT22;10195;50.868;4.382;2023-07-28T02:29:39;19.00;99.90
20070;DHT22;10195;50.868;4.382;2023-07-28T02:32:05;19.00;99.90
20070;DHT22;10195;50.868;4.382;2023-07-28T02:34:31;19.10;99.90
20070;DHT22;10195;50.868;4.382;2023-07-28T02:36:57;19.10;99.90
20070;DHT22;10195;50.868;4.382;2023-07-28T02:39:24;19.00;99.90
20070;DHT22;10195;50.868;4.382;2023-07-28T02:41:50;19.00;99.90
20070;DHT22;10195;50.868;4.382;2023-07-28T02:44:15;19.10;99.90
20070;DHT22;10195;50.868;4.382;2023-07-28T02:46:41;19.10;99.90
20070;DHT22;10195;50.868;4.382;2023-07-28T02:49:07;19.00;99.90
20070;DHT22;10195;50.868;4.382;2023-07-28T02:51:32;19.10;99.90
20070;DHT22;10195;50.868;4.382;2023-07-28T02:54:01;19.00;99.90
20070;DHT22;10195;50.868;4.382;2023-07-28T02:56:27;19.00;99.90
20070;DHT22;10195;50.868;4.382;2023-07-28T02:58:52;19.00;99.90
20070;DHT22;10195;50.868;4.382;2023-07-28T03:01:18;18.90;99.90
20070;DHT22;10195;50.868;4.382;2023-07-28T03:03:45;18.90;99.90
20070;DHT22;10195;50.868;4.382;2023-07-28T03:06:12;18.80;99.90
20070;DHT22;10195;50.868;4.382;2023-07-28T03:08:38;18.90;99.90
20070;DHT22;10195;50.868;4.382;2023-07-28T03:11:04;18.80;99.90
20070;DHT22;10195;50.868;4.382;2023-07-28T03:13:29;18.80;99.90
20070;DHT22;10195;50.868;4.382;2023-07-28T03:15:55;18.80;99.90
20070;DHT22;10195;50.868;4.382;2023-07-28T03:18:21;18.80;99.90
20070;DHT22;10195;50.868;4.382;2023-07-28T03:20:46;18.80;99.90
20070;DHT22;10195;50.868;4.382;2023-07-28T03:23:12;18.80;99.90
20070;DHT22;10195;50.868;4.382;2023-07-28T03:25:38;18.80;99.90
20070;DHT22;10195;50.868;4.382;2023-07-28T03:28:04;18.80;99.90
20070;DHT22;10195;50.868;4.382;2023-07-28T03:30:29;18.80;99.90
20070;DHT22;10195;50.868;4.382;2023-07-28T03:32:55;18.80;99.90
20070;DHT22;10195;50.868;4.382;2023-07-28T03:35:21;18.80;99.90
20070;DHT22;10195;50.868;4.382;2023-07-28T03:37:46;18.70;99.90
20070;DHT22;10195;50.868;4.382;2023-07-28T03:40:12;18.70;99.90
20070;DHT22;10195;50.868;4.382;2023-07-28T03:42:38;18.70;99.90
20070;DHT22;10195;50.868;4.382;2023-07-28T03:45:04;18.80;99.90
20070;DHT22;10195;50.868;4.382;2023-07-28T03:47:30;18.80;99.90
20070;DHT22;10195;50.868;4.382;2023-07-28T03:49:55;18.90;99.90
20070;DHT22;10195;50.868;4.382;2023-07-28T03:52:21;19.00;99.90
20070;DHT22;10195;50.868;4.382;2023-07-28T03:54:47;19.00;99.90
20070;DHT22;10195;50.868;4.382;2023-07-28T03:57:12;18.90;99.90
20070;DHT22;10195;50.868;4.382;2023-07-28T03:59:38;18.90;99.90
20070;DHT22;10195;50.868;4.382;2023-07-28T04:02:04;18.90;99.90
20070;DHT22;10195;50.868;4.382;2023-07-28T04:04:29;19.00;99.90
20070;DHT22;10195;50.868;4.382;2023-07-28T04:06:55;19.00;99.90
20070;DHT22;10195;50.868;4.382;2023-07-28T04:09:21;19.00;99.90
20070;DHT22;10195;50.868;4.382;2023-07-28T04:11:46;19.00;99.90
20070;DHT22;10195;50.868;4.382;2023-07-28T04:14:12;19.00;99.90
20070;DHT22;10195;50.868;4.382;2023-07-28T04:16:38;19.00;99.90
20070;DHT22;10195;50.868;4.382;2023-07-28T04:19:04;19.00;99.90
20070;DHT22;10195;50.868;4.382;2023-07-28T04:21:30;19.00;99.90
20070;DHT22;10195;50.868;4.382;2023-07-28T04:23:55;19.10;99.90
20070;DHT22;10195;50.868;4.382;2023-07-28T04:26:23;18.90;99.90
20070;DHT22;10195;50.868;4.382;2023-07-28T04:28:48;19.00;99.90
20070;DHT22;10195;50.868;4.382;2023-07-28T04:31:14;18.90;99.90
20070;DHT22;10195;50.868;4.382;2023-07-28T04:33:43;18.90;99.90
20070;DHT22;10195;50.868;4.382;2023-07-28T04:36:09;18.90;99.90
20070;DHT22;10195;50.868;4.382;2023-07-28T04:38:35;19.00;99.90
20070;DHT22;10195;50.868;4.382;2023-07-28T04:41:00;19.00;99.90
20070;DHT22;10195;50.868;4.382;2023-07-28T04:43:26;19.00;99.90
20070;DHT22;10195;50.868;4.382;2023-07-28T04:45:52;19.00;99.90
20070;DHT22;10195;50.868;4.382;2023-07-28T04:48:17;19.10;99.90
20070;DHT22;10195;50.868;4.382;2023-07-28T04:50:44;19.10;99.90
20070;DHT22;10195;50.868;4.382;2023-07-28T04:53:10;19.20;99.90
20070;DHT22;10195;50.868;4.382;2023-07-28T04:55:36;19.20;99.90
20070;DHT22;10195;50.868;4.382;2023-07-28T04:58:01;19.20;99.90
20070;DHT22;10195;50.868;4.382;2023-07-28T05:00:27;19.20;99.90
20070;DHT22;10195;50.868;4.382;2023-07-28T05:02:53;19.20;99.90
20070;DHT22;10195;50.868;4.382;2023-07-28T05:05:18;19.20;99.90
20070;DHT22;10195;50.868;4.382;2023-07-28T05:07:44;19.20;99.90
20070;DHT22;10195;50.868;4.382;2023-07-28T05:10:10;19.30;99.90
20070;DHT22;10195;50.868;4.382;2023-07-28T05:12:35;19.20;99.90
20070;DHT22;10195;50.868;4.382;2023-07-28T05:15:01;19.30;99.90
20070;DHT22;10195;50.868;4.382;2023-07-28T05:17:27;19.40;99.90
20070;DHT22;10195;50.868;4.382;2023-07-28T05:19:52;19.30;99.90
20070;DHT22;10195;50.868;4.382;2023-07-28T05:22:18;19.30;99.90
20070;DHT22;10195;50.868;4.382;2023-07-28T05:24:44;19.20;99.90
20070;DHT22;10195;50.868;4.382;2023-07-28T05:27:11;19.20;99.90
20070;DHT22;10195;50.868;4.382;2023-07-28T05:29:36;19.30;99.90
20070;DHT22;10195;50.868;4.382;2023-07-28T05:32:02;19.30;99.90
20070;DHT22;10195;50.868;4.382;2023-07-28T05:34:29;19.40;99.90
20070;DHT22;10195;50.868;4.382;2023-07-28T05:36:55;19.50;99.90
20070;DHT22;10195;50.868;4.382;2023-07-28T05:39:21;19.50;99.90
20070;DHT22;10195;50.868;4.382;2023-07-28T05:41:46;19.50;99.90
20070;DHT22;10195;50.868;4.382;2023-07-28T05:44:12;19.40;99.90
20070;DHT22;10195;50.868;4.382;2023-07-28T05:46:37;19.30;99.90
20070;DHT22;10195;50.868;4.382;2023-07-28T05:49:04;19.40;99.90
20070;DHT22;10195;50.868;4.382;2023-07-28T05:51:30;19.50;99.90
20070;DHT22;10195;50.868;4.382;2023-07-28T05:53:56;19.60;99.90
20070;DHT22;10195;50.868;4.382;2023-07-28T05:56:21;19.70;99.90
20070;DHT22;10195;50.868;4.382;2023-07-28T05:58:47;19.70;99.90
20070;DHT22;10195;50.868;4.382;2023-07-28T06:01:13;19.80;99.90
20070;DHT22;10195;50.868;4.382;2023-07-28T06:03:39;19.90;99.90
20070;DHT22;10195;50.868;4.382;2023-07-28T06:06:05;19.90;99.90
20070;DHT22;10195;50.868;4.382;2023-07-28T06:08:30;19.90;99.90
20070;DHT22;10195;50.868;4.382;2023-07-28T06:10:56;20.00;99.90
20070;DHT22;10195;50.868;4.382;2023-07-28T06:13:21;20.00;99.90
20070;DHT22;10195;50.868;4.382;2023-07-28T06:15:47;20.00;99.90
20070;DHT22;10195;50.868;4.382;2023-07-28T06:18:13;19.90;99.90
20070;DHT22;10195;50.868;4.382;2023-07-28T06:20:42;20.00;99.90
20070;DHT22;10195;50.868;4.382;2023-07-28T06:23:08;20.10;99.90
20070;DHT22;10195;50.868;4.382;2023-07-28T06:25:33;20.20;99.90
20070;DHT22;10195;50.868;4.382;2023-07-28T06:27:59;20.20;99.90
20070;DHT22;10195;50.868;4.382;2023-07-28T06:30:25;20.20;99.90
20070;DHT22;10195;50.868;4.382;2023-07-28T06:32:51;20.30;99.90
20070;DHT22;10195;50.868;4.382;2023-07-28T06:35:17;20.40;99.90
20070;DHT22;10195;50.868;4.382;2023-07-28T06:37:43;20.70;99.90
20070;DHT22;10195;50.868;4.382;2023-07-28T06:40:09;21.20;99.90
20070;DHT22;10195;50.868;4.382;2023-07-28T06:42:35;20.90;99.90
20070;DHT22;10195;50.868;4.382;2023-07-28T06:45:04;20.90;99.90
20070;DHT22;10195;50.868;4.382;2023-07-28T06:47:30;21.00;99.90
20070;DHT22;10195;50.868;4.382;2023-07-28T06:49:56;20.80;99.90
20070;DHT22;10195;50.868;4.382;2023-07-28T06:52:21;20.80;99.90
20070;DHT22;10195;50.868;4.382;2023-07-28T06:54:47;20.90;99.90
20070;DHT22;10195;50.868;4.382;2023-07-28T06:57:15;20.90;99.90
20070;DHT22;10195;50.868;4.382;2023-07-28T06:59:41;20.60;99.90
20070;DHT22;10195;50.868;4.382;2023-07-28T07:02:07;20.60;99.90
20070;DHT22;10195;50.868;4.382;2023-07-28T07:04:32;21.00;99.90
20070;DHT22;10195;50.868;4.382;2023-07-28T07:06:58;21.10;99.90
20070;DHT22;10195;50.868;4.382;2023-07-28T07:09:24;21.40;99.90
20070;DHT22;10195;50.868;4.382;2023-07-28T07:11:50;21.90;99.90
20070;DHT22;10195;50.868;4.382;2023-07-28T07:14:16;21.90;99.90
20070;DHT22;10195;50.868;4.382;2023-07-28T07:16:41;22.10;99.90
20070;DHT22;10195;50.868;4.382;2023-07-28T07:19:07;22.20;99.90
20070;DHT22;10195;50.868;4.382;2023-07-28T07:21:34;22.50;99.90
20070;DHT22;10195;50.868;4.382;2023-07-28T07:23:59;23.00;99.90
20070;DHT22;10195;50.868;4.382;2023-07-28T07:26:25;23.60;99.90
20070;DHT22;10195;50.868;4.382;2023-07-28T07:28:51;24.40;99.90
20070;DHT22;10195;50.868;4.382;2023-07-28T07:31:16;24.80;99.90
20070;DHT22;10195;50.868;4.382;2023-07-28T07:33:42;25.00;99.90
20070;DHT22;10195;50.868;4.382;2023-07-28T07:36:15;25.60;99.90
20070;DHT22;10195;50.868;4.382;2023-07-28T07:38:41;26.00;99.90
20070;DHT22;10195;50.868;4.382;2023-07-28T07:41:08;26.20;99.90
20070;DHT22;10195;50.868;4.382;2023-07-28T07:43:34;26.50;99.90
20070;DHT22;10195;50.868;4.382;2023-07-28T07:46:00;27.10;99.90
20070;DHT22;10195;50.868;4.382;2023-07-28T07:48:25;27.70;99.90
20070;DHT22;10195;50.868;4.382;2023-07-28T07:50:51;27.40;99.90
20070;DHT22;10195;50.868;4.382;2023-07-28T07:53:17;27.10;99.90
20070;DHT22;10195;50.868;4.382;2023-07-28T07:55:43;26.20;99.90
20070;DHT22;10195;50.868;4.382;2023-07-28T07:58:09;25.50;99.90
20070;DHT22;10195;50.868;4.382;2023-07-28T08:00:37;24.30;99.90
20070;DHT22;10195;50.868;4.382;2023-07-28T08:03:04;24.00;99.90
20070;DHT22;10195;50.868;4.382;2023-07-28T08:05:30;23.80;99.90
20070;DHT22;10195;50.868;4.382;2023-07-28T08:07:56;23.40;99.90
20070;DHT22;10195;50.868;4.382;2023-07-28T08:10:22;23.40;99.90
20070;DHT22;10195;50.868;4.382;2023-07-28T08:12:48;23.20;99.90
20070;DHT22;10195;50.868;4.382;2023-07-28T08:15:13;22.90;99.90
20070;DHT22;10195;50.868;4.382;2023-07-28T08:17:39;22.90;99.90
20070;DHT22;10195;50.868;4.382;2023-07-28T08:20:08;22.90;99.90
20070;DHT22;10195;50.868;4.382;2023-07-28T08:22:34;23.00;99.90
20070;DHT22;10195;50.868;4.382;2023-07-28T08:25:00;22.90;99.90
20070;DHT22;10195;50.868;4.382;2023-07-28T08:27:25;22.60;99.90
20070;DHT22;10195;50.868;4.382;2023-07-28T08:29:51;22.50;99.90
20070;DHT22;10195;50.868;4.382;2023-07-28T08:32:17;22.60;99.90
20070;DHT22;10195;50.868;4.382;2023-07-28T08:34:43;22.60;99.90
20070;DHT22;10195;50.868;4.382;2023-07-28T08:37:08;23.00;99.90
20070;DHT22;10195;50.868;4.382;2023-07-28T08:39:34;23.40;99.90
20070;DHT22;10195;50.868;4.382;2023-07-28T08:42:01;23.60;99.90
20070;DHT22;10195;50.868;4.382;2023-07-28T08:44:29;23.70;99.90
20070;DHT22;10195;50.868;4.382;2023-07-28T08:46:55;23.70;99.90
20070;DHT22;10195;50.868;4.382;2023-07-28T08:49:21;23.70;99.90
20070;DHT22;10195;50.868;4.382;2023-07-28T08:51:50;23.60;99.90
20070;DHT22;10195;50.868;4.382;2023-07-28T08:54:16;23.50;99.90
20070;DHT22;10195;50.868;4.382;2023-07-28T08:56:45;23.30;99.90
20070;DHT22;10195;50.868;4.382;2023-07-28T08:59:10;23.20;99.90
20070;DHT22;10195;50.868;4.382;2023-07-28T09:01:39;23.20;99.90
20070;DHT22;10195;50.868;4.382;2023-07-28T09:04:10;23.20;99.90
20070;DHT22;10195;50.868;4.382;2023-07-28T09:06:36;23.10;99.90
20070;DHT22;10195;50.868;4.382;2023-07-28T09:09:05;23.00;99.90
20070;DHT22;10195;50.868;4.382;2023-07-28T09:11:32;22.80;99.90
20070;DHT22;10195;50.868;4.382;2023-07-28T09:14:00;22.70;99.90
20070;DHT22;10195;50.868;4.382;2023-07-28T09:16:25;22.40;99.90
20070;DHT22;10195;50.868;4.382;2023-07-28T09:19:07;22.40;99.90
20070;DHT22;10195;50.868;4.382;2023-07-28T09:21:33;22.40;99.90
20070;DHT22;10195;50.868;4.382;2023-07-28T09:24:06;22.10;99.90
20070;DHT22;10195;50.868;4.382;2023-07-28T09:26:39;22.00;99.90
20070;DHT22;10195;50.868;4.382;2023-07-28T09:29:31;22.00;99.90
20070;DHT22;10195;50.868;4.382;2023-07-28T09:32:04;22.10;99.90
20070;DHT22;10195;50.868;4.382;2023-07-28T09:34:33;22.30;99.90
20070;DHT22;10195;50.868;4.382;2023-07-28T09:37:00;22.10;99.90
20070;DHT22;10195;50.868;4.382;2023-07-28T09:39:26;22.20;99.90
20070;DHT22;10195;50.868;4.382;2023-07-28T09:41:53;22.40;99.90
20070;DHT22;10195;50.868;4.382;2023-07-28T09:44:22;22.90;99.90
20070;DHT22;10195;50.868;4.382;2023-07-28T09:46:51;23.50;99.90
20070;DHT22;10195;50.868;4.382;2023-07-28T09:51:54;24.10;99.90
20070;DHT22;10195;50.868;4.382;2023-07-28T09:54:29;24.00;99.90
20070;DHT22;10195;50.868;4.382;2023-07-28T09:56:59;24.20;99.90
20070;DHT22;10195;50.868;4.382;2023-07-28T09:59:41;23.80;99.90
20070;DHT22;10195;50.868;4.382;2023-07-28T10:02:07;23.70;99.90
20070;DHT22;10195;50.868;4.382;2023-07-28T10:04:36;23.60;99.90
20070;DHT22;10195;50.868;4.382;2023-07-28T10:07:05;23.70;99.90
20070;DHT22;10195;50.868;4.382;2023-07-28T10:09:31;23.70;99.90
20070;DHT22;10195;50.868;4.382;2023-07-28T10:11:59;23.80;99.90
20070;DHT22;10195;50.868;4.382;2023-07-28T10:14:43;24.00;99.90
20070;DHT22;10195;50.868;4.382;2023-07-28T10:17:15;24.10;99.90
20070;DHT22;10195;50.868;4.382;2023-07-28T10:19:41;24.30;99.90
20070;DHT22;10195;50.868;4.382;2023-07-28T10:22:10;24.30;99.90
20070;DHT22;10195;50.868;4.382;2023-07-28T10:24:52;24.50;99.90
20070;DHT22;10195;50.868;4.382;2023-07-28T10:27:38;24.20;99.90
20070;DHT22;10195;50.868;4.382;2023-07-28T10:30:10;24.00;99.90
20070;DHT22;10195;50.868;4.382;2023-07-28T10:32:39;24.10;99.90
20070;DHT22;10195;50.868;4.382;2023-07-28T10:37:37;24.70;99.90
20070;DHT22;10195;50.868;4.382;2023-07-28T10:40:31;24.90;99.90
20070;DHT22;10195;50.868;4.382;2023-07-28T10:42:59;24.90;99.90
20070;DHT22;10195;50.868;4.382;2023-07-28T10:45:26;24.80;99.90
20070;DHT22;10195;50.868;4.382;2023-07-28T10:47:54;24.90;99.90
20070;DHT22;10195;50.868;4.382;2023-07-28T10:50:30;25.20;99.90
20070;DHT22;10195;50.868;4.382;2023-07-28T10:52:57;25.70;99.90
20070;DHT22;10195;50.868;4.382;2023-07-28T10:55:24;25.60;99.90
20070;DHT22;10195;50.868;4.382;2023-07-28T10:57:52;25.50;99.90
20070;DHT22;10195;50.868;4.382;2023-07-28T11:00:20;25.30;99.90
20070;DHT22;10195;50.868;4.382;2023-07-28T11:02:48;25.20;99.90
20070;DHT22;10195;50.868;4.382;2023-07-28T11:05:36;24.80;99.90
20070;DHT22;10195;50.868;4.382;2023-07-28T11:08:03;24.80;99.90
20070;DHT22;10195;50.868;4.382;2023-07-28T11:10:29;25.10;99.90
20070;DHT22;10195;50.868;4.382;2023-07-28T11:12:58;25.60;99.90
20070;DHT22;10195;50.868;4.382;2023-07-28T11:15:25;25.30;99.90
20070;DHT22;10195;50.868;4.382;2023-07-28T11:17:51;25.20;99.90
20070;DHT22;10195;50.868;4.382;2023-07-28T11:20:22;25.10;99.90
20070;DHT22;10195;50.868;4.382;2023-07-28T11:23:02;25.00;99.90
20070;DHT22;10195;50.868;4.382;2023-07-28T11:25:32;25.10;99.90
20070;DHT22;10195;50.868;4.382;2023-07-28T11:28:01;24.90;99.90
20070;DHT22;10195;50.868;4.382;2023-07-28T11:30:28;24.90;99.90
20070;DHT22;10195;50.868;4.382;2023-07-28T11:32:54;25.00;99.90
20070;DHT22;10195;50.868;4.382;2023-07-28T11:35:21;24.90;99.90
20070;DHT22;10195;50.868;4.382;2023-07-28T11:37:50;24.20;99.90
20070;DHT22;10195;50.868;4.382;2023-07-28T11:40:17;24.10;99.90
20070;DHT22;10195;50.868;4.382;2023-07-28T11:42:54;23.90;99.90
20070;DHT22;10195;50.868;4.382;2023-07-28T11:45:21;24.30;99.90
20070;DHT22;10195;50.868;4.382;2023-07-28T11:48:03;24.80;99.90
20070;DHT22;10195;50.868;4.382;2023-07-28T11:50:34;25.30;99.90
20070;DHT22;10195;50.868;4.382;2023-07-28T11:53:00;25.60;99.90
20070;DHT22;10195;50.868;4.382;2023-07-28T11:55:26;25.50;99.90
20070;DHT22;10195;50.868;4.382;2023-07-28T11:57:53;25.40;99.90
20070;DHT22;10195;50.868;4.382;2023-07-28T12:00:24;25.00;99.90
20070;DHT22;10195;50.868;4.382;2023-07-28T12:03:10;24.90;99.90
20070;DHT22;10195;50.868;4.382;2023-07-28T12:05:38;24.80;99.90
20070;DHT22;10195;50.868;4.382;2023-07-28T12:08:04;25.00;99.90
20070;DHT22;10195;50.868;4.382;2023-07-28T12:10:31;25.00;99.90
20070;DHT22;10195;50.868;4.382;2023-07-28T12:12:57;25.10;99.90
20070;DHT22;10195;50.868;4.382;2023-07-28T12:15:29;25.20;99.90
20070;DHT22;10195;50.868;4.382;2023-07-28T12:18:08;25.40;99.90
20070;DHT22;10195;50.868;4.382;2023-07-28T12:20:38;25.40;99.90
20070;DHT22;10195;50.868;4.382;2023-07-28T12:23:06;25.70;99.90
20070;DHT22;10195;50.868;4.382;2023-07-28T12:25:32;25.60;99.90
20070;DHT22;10195;50.868;4.382;2023-07-28T12:27:58;25.50;99.90
20070;DHT22;10195;50.868;4.382;2023-07-28T12:30:24;25.10;99.90
20070;DHT22;10195;50.868;4.382;2023-07-28T12:32:50;25.00;99.90
20070;DHT22;10195;50.868;4.382;2023-07-28T12:35:15;25.10;99.90
20070;DHT22;10195;50.868;4.382;2023-07-28T12:37:41;25.10;99.90
20070;DHT22;10195;50.868;4.382;2023-07-28T12:40:07;25.20;99.90
20070;DHT22;10195;50.868;4.382;2023-07-28T12:42:34;25.20;99.90
20070;DHT22;10195;50.868;4.382;2023-07-28T12:44:59;25.10;99.90
20070;DHT22;10195;50.868;4.382;2023-07-28T12:47:25;25.00;99.90
20070;DHT22;10195;50.868;4.382;2023-07-28T12:49:51;25.20;99.90
20070;DHT22;10195;50.868;4.382;2023-07-28T12:52:17;25.30;99.90
20070;DHT22;10195;50.868;4.382;2023-07-28T12:54:43;25.20;99.90
20070;DHT22;10195;50.868;4.382;2023-07-28T12:57:09;25.30;99.90
20070;DHT22;10195;50.868;4.382;2023-07-28T12:59:38;25.30;99.90
20070;DHT22;10195;50.868;4.382;2023-07-28T13:02:03;24.90;99.90
20070;DHT22;10195;50.868;4.382;2023-07-28T13:04:29;25.10;99.90
20070;DHT22;10195;50.868;4.382;2023-07-28T13:06:55;25.50;99.90
20070;DHT22;10195;50.868;4.382;2023-07-28T13:09:20;26.10;99.90
20070;DHT22;10195;50.868;4.382;2023-07-28T13:11:46;26.20;99.90
20070;DHT22;10195;50.868;4.382;2023-07-28T13:14:12;26.30;99.90
20070;DHT22;10195;50.868;4.382;2023-07-28T13:16:37;26.30;99.90
20070;DHT22;10195;50.868;4.382;2023-07-28T13:19:04;25.80;99.90
20070;DHT22;10195;50.868;4.382;2023-07-28T13:21:29;25.70;99.90
20070;DHT22;10195;50.868;4.382;2023-07-28T13:23:55;25.50;99.90
20070;DHT22;10195;50.868;4.382;2023-07-28T13:26:21;25.30;99.90
20070;DHT22;10195;50.868;4.382;2023-07-28T13:28:46;25.20;99.90
20070;DHT22;10195;50.868;4.382;2023-07-28T13:31:15;25.20;99.90
20070;DHT22;10195;50.868;4.382;2023-07-28T13:33:41;25.20;99.90
20070;DHT22;10195;50.868;4.382;2023-07-28T13:36:06;25.50;99.90
20070;DHT22;10195;50.868;4.382;2023-07-28T13:38:33;25.50;99.90
20070;DHT22;10195;50.868;4.382;2023-07-28T13:40:59;25.50;99.90
20070;DHT22;10195;50.868;4.382;2023-07-28T13:43:25;25.50;99.90
20070;DHT22;10195;50.868;4.382;2023-07-28T13:45:51;25.60;99.90
20070;DHT22;10195;50.868;4.382;2023-07-28T13:48:17;25.70;99.90
20070;DHT22;10195;50.868;4.382;2023-07-28T13:50:43;25.80;99.90
20070;DHT22;10195;50.868;4.382;2023-07-28T13:53:09;26.00;99.90
20070;DHT22;10195;50.868;4.382;2023-07-28T13:55:35;25.90;99.90
20070;DHT22;10195;50.868;4.382;2023-07-28T13:58:01;26.00;99.90
20070;DHT22;10195;50.868;4.382;2023-07-28T14:00:26;25.80;99.90
20070;DHT22;10195;50.868;4.382;2023-07-28T14:02:52;25.70;99.90
20070;DHT22;10195;50.868;4.382;2023-07-28T14:05:17;25.70;99.90
20070;DHT22;10195;50.868;4.382;2023-07-28T14:07:44;25.80;99.90
20070;DHT22;10195;50.868;4.382;2023-07-28T14:10:11;25.60;99.90
20070;DHT22;10195;50.868;4.382;2023-07-28T14:12:37;25.30;99.90
20070;DHT22;10195;50.868;4.382;2023-07-28T14:15:03;25.00;99.90
20070;DHT22;10195;50.868;4.382;2023-07-28T14:17:29;25.00;99.90
20070;DHT22;10195;50.868;4.382;2023-07-28T14:19:55;24.90;99.90
20070;DHT22;10195;50.868;4.382;2023-07-28T14:22:21;25.10;99.90
20070;DHT22;10195;50.868;4.382;2023-07-28T14:24:46;25.00;99.90
20070;DHT22;10195;50.868;4.382;2023-07-28T14:27:12;24.80;99.90
20070;DHT22;10195;50.868;4.382;2023-07-28T14:29:37;24.80;99.90
20070;DHT22;10195;50.868;4.382;2023-07-28T14:32:04;25.10;99.90
20070;DHT22;10195;50.868;4.382;2023-07-28T14:34:30;25.40;99.90
20070;DHT22;10195;50.868;4.382;2023-07-28T14:36:55;25.70;99.90
20070;DHT22;10195;50.868;4.382;2023-07-28T14:39:21;26.00;99.90
20070;DHT22;10195;50.868;4.382;2023-07-28T14:41:46;26.30;99.90
20070;DHT22;10195;50.868;4.382;2023-07-28T14:44:12;26.50;99.90
20070;DHT22;10195;50.868;4.382;2023-07-28T14:46:37;26.40;99.90
20070;DHT22;10195;50.868;4.382;2023-07-28T14:49:03;26.10;99.90
20070;DHT22;10195;50.868;4.382;2023-07-28T14:51:29;25.80;99.90
20070;DHT22;10195;50.868;4.382;2023-07-28T14:53:54;25.30;99.90
20070;DHT22;10195;50.868;4.382;2023-07-28T14:56:20;25.10;99.90
20070;DHT22;10195;50.868;4.382;2023-07-28T14:58:50;25.20;99.90
20070;DHT22;10195;50.868;4.382;2023-07-28T15:01:17;25.40;99.90
20070;DHT22;10195;50.868;4.382;2023-07-28T15:03:42;25.60;99.90
20070;DHT22;10195;50.868;4.382;2023-07-28T15:06:08;25.60;99.90
20070;DHT22;10195;50.868;4.382;2023-07-28T15:08:34;25.30;99.90
20070;DHT22;10195;50.868;4.382;2023-07-28T15:10:59;25.50;99.90
20070;DHT22;10195;50.868;4.382;2023-07-28T15:13:28;25.80;99.90
20070;DHT22;10195;50.868;4.382;2023-07-28T15:15:54;25.60;99.90
20070;DHT22;10195;50.868;4.382;2023-07-28T15:18:20;25.40;99.90
20070;DHT22;10195;50.868;4.382;2023-07-28T15:20:45;25.40;99.90
20070;DHT22;10195;50.868;4.382;2023-07-28T15:23:11;25.60;99.90
20070;DHT22;10195;50.868;4.382;2023-07-28T15:25:37;25.80;99.90
20070;DHT22;10195;50.868;4.382;2023-07-28T15:28:11;26.20;99.90
20070;DHT22;10195;50.868;4.382;2023-07-28T15:30:37;26.30;99.90
20070;DHT22;10195;50.868;4.382;2023-07-28T15:33:03;26.30;99.90
20070;DHT22;10195;50.868;4.382;2023-07-28T15:35:28;26.40;99.90
20070;DHT22;10195;50.868;4.382;2023-07-28T15:37:54;26.10;99.90